| time (UTC) | temp F | wind direction | speed MPH | gust MPH | rain 1hr in | rain 24hr in | rain mn in | humidity % | barometer mb |
| 20260905004555 | 67 | 327 | 6.0 | 15.0 | 0.00 | 0.00 | 0.00 | 61 | 1010.2 |
| 20260905003050 | 67 | 355 | 4.0 | 13.0 | 0.00 | 0.00 | 0.00 | 61 | 1010.1 |
| 20260905001546 | 67 | 306 | 6.0 | 13.0 | 0.00 | 0.00 | 0.00 | 61 | 1010.2 |
| 20260905000041 | 68 | 292 | 4.0 | 9.0 | 0.00 | 0.00 | 0.00 | 62 | 1010.0 |
| 20260904234540 | 68 | 321 | 3.0 | 9.0 | 0.00 | 0.00 | 0.00 | 63 | 1009.9 |
| 20260904233040 | 68 | 318 | 5.0 | 13.0 | 0.00 | 0.00 | 0.00 | 63 | 1009.7 |
| 20260904231535 | 69 | 344 | 4.0 | 11.0 | 0.00 | 0.00 | 0.00 | 63 | 1009.7 |
| 20260904230028 | 70 | 360 | 5.0 | 13.0 | 0.00 | 0.00 | 0.00 | 63 | 1009.7 |
| 20260904224527 | 70 | 5 | 3.0 | 13.0 | 0.00 | 0.00 | 0.00 | 63 | 1009.7 |
| 20260904223029 | 70 | 12 | 2.0 | 10.0 | 0.00 | 0.00 | 0.00 | 62 | 1009.6 |
| 20260904221520 | 71 | 46 | 7.0 | 13.0 | 0.00 | 0.00 | 0.00 | 62 | 1009.5 |
| 20260904220018 | 71 | 360 | 4.0 | 13.0 | 0.00 | 0.00 | 0.00 | 62 | 1009.6 |
| 20260904214512 | 71 | 5 | 7.0 | 14.0 | 0.00 | 0.00 | 0.00 | 62 | 1009.7 |
| 20260904213007 | 72 | 46 | 6.0 | 13.0 | 0.00 | 0.00 | 0.00 | 62 | 1009.7 |
| 20260904211505 | 73 | 302 | 6.0 | 18.0 | 0.00 | 0.00 | 0.00 | 60 | 1009.6 |
| 20260904210104 | 72 | 307 | 11.0 | 18.0 | 0.00 | 0.00 | 0.00 | 60 | 1009.4 |
| 20260904204554 | 73 | 347 | 7.0 | 16.0 | 0.00 | 0.00 | 0.00 | 60 | 1009.4 |
| 20260904203048 | 73 | 317 | 7.0 | 18.0 | 0.00 | 0.00 | 0.00 | 60 | 1009.6 |
| 20260904201557 | 76 | 5 | 9.0 | 20.0 | 0.00 | 0.00 | 0.00 | 56 | 1009.4 |
| 20260904200039 | 75 | 333 | 8.0 | 17.0 | 0.00 | 0.00 | 0.00 | 57 | 1009.5 |
| 20260904194543 | 73 | 344 | 9.0 | 19.0 | 0.00 | 0.00 | 0.00 | 59 | 1009.5 |
| 20260904193033 | 73 | 286 | 7.0 | 16.0 | 0.00 | 0.00 | 0.00 | 58 | 1009.6 |
| 20260904191531 | 73 | 310 | 9.0 | 20.0 | 0.00 | 0.00 | 0.00 | 57 | 1009.5 |
| 20260904190030 | 74 | 323 | 8.0 | 21.0 | 0.00 | 0.00 | 0.00 | 56 | 1009.6 |
| 20260904184523 | 75 | 289 | 12.0 | 23.0 | 0.00 | 0.00 | 0.00 | 56 | 1009.5 |
| 20260904183017 | 75 | 355 | 7.0 | 17.0 | 0.00 | 0.00 | 0.00 | 57 | 1009.9 |
| 20260904181515 | 74 | 294 | 9.0 | 17.0 | 0.00 | 0.00 | 0.00 | 57 | 1009.5 |
| 20260904180009 | 73 | 286 | 8.0 | 19.0 | 0.00 | 0.00 | 0.00 | 61 | 1009.7 |
| 20260904174505 | 73 | 269 | 7.0 | 17.0 | 0.00 | 0.00 | 0.00 | 59 | 1009.8 |
| 20260904173001 | 75 | 342 | 10.0 | 16.0 | 0.00 | 0.00 | 0.00 | 58 | 1010.0 |
| 20260904171609 | 74 | 275 | 8.0 | 17.0 | 0.00 | 0.00 | 0.00 | 61 | 1009.8 |
| 20260904170052 | 74 | 279 | 9.0 | 19.0 | 0.00 | 0.00 | 0.00 | 60 | 1010.0 |
| 20260904164554 | 73 | 316 | 10.0 | 17.0 | 0.00 | 0.00 | 0.00 | 62 | 1010.2 |
| 20260904163042 | 72 | 289 | 9.0 | 20.0 | 0.00 | 0.00 | 0.00 | 63 | 1010.3 |
| 20260904161540 | 73 | 333 | 9.0 | 20.0 | 0.00 | 0.00 | 0.00 | 63 | 1010.3 |
| 20260904160035 | 73 | 360 | 8.0 | 17.0 | 0.00 | 0.00 | 0.00 | 62 | 1010.3 |
| 20260904154529 | 72 | 326 | 6.0 | 15.0 | 0.00 | 0.00 | 0.00 | 61 | 1010.5 |
| 20260904153028 | 72 | 302 | 10.0 | 18.0 | 0.00 | 0.00 | 0.00 | 60 | 1010.6 |
| 20260904151520 | 72 | 320 | 7.0 | 13.0 | 0.00 | 0.00 | 0.00 | 57 | 1010.6 |
| 20260904150027 | 72 | 329 | 8.0 | 15.0 | 0.00 | 0.00 | 0.00 | 57 | 1010.6 |
| 20260904144511 | 71 | 329 | 7.0 | 13.0 | 0.00 | 0.00 | 0.00 | 50 | 1010.8 |
| 20260904143006 | 70 | 327 | 5.0 | 11.0 | 0.00 | 0.00 | 0.00 | 39 | 1010.9 |
| 20260904141502 | 70 | 315 | 3.0 | 8.0 | 0.00 | 0.00 | 0.00 | 35 | 1011.0 |
| 20260904140105 | 69 | 315 | 3.0 | 10.0 | 0.00 | 0.00 | 0.00 | 29 | 1011.2 |
| 20260904134558 | 68 | 267 | 5.0 | 11.0 | 0.00 | 0.00 | 0.00 | 25 | 1011.2 |
| 20260904133049 | 68 | 322 | 5.0 | 10.0 | 0.00 | 0.00 | 0.00 | 21 | 1011.2 |
| 20260904131545 | 67 | 322 | 2.0 | 5.0 | 0.00 | 0.00 | 0.00 | 1 | 1011.2 |
| 20260904130040 | 66 | 317 | 2.0 | 5.0 | 0.00 | 0.00 | 0.00 | 1 | 1011.2 |
| 20260904124535 | 65 | 317 | 2.0 | 5.0 | 0.00 | 0.00 | 0.00 | 1 | 1011.3 |
| 20260904123030 | 64 | 256 | 2.0 | 6.0 | 0.00 | 0.00 | 0.00 | 1 | 1011.3 |
| 20260904121526 | 63 | 240 | 2.0 | 5.0 | 0.00 | 0.00 | 0.00 | 1 | 1011.3 |
| 20260904120021 | 62 | 205 | 3.0 | 6.0 | 0.00 | 0.00 | 0.00 | 1 | 1011.4 |
| 20260904114530 | 62 | 294 | 4.0 | 8.0 | 0.00 | 0.00 | 0.00 | 1 | 1011.3 |
| 20260904113012 | 62 | 236 | 3.0 | 5.0 | 0.00 | 0.00 | 0.00 | 1 | 1011.1 |
| 20260904111517 | 62 | 286 | 3.0 | 5.0 | 0.00 | 0.00 | 0.00 | 1 | 1011.0 |
| 20260904110003 | 62 | 246 | 2.0 | 8.0 | 0.00 | 0.00 | 0.00 | 1 | 1010.9 |
| 20260904104559 | 62 | 195 | 0.0 | 5.0 | 0.00 | 0.01 | 0.00 | 1 | 1010.9 |
| 20260904103054 | 62 | 265 | 1.0 | 7.0 | 0.00 | 0.01 | 0.00 | 1 | 1011.0 |
| 20260904101550 | 62 | 234 | 1.0 | 8.0 | 0.00 | 0.01 | 0.00 | 1 | 1010.8 |
| 20260904100049 | 62 | 257 | 3.0 | 8.0 | 0.00 | 0.01 | 0.00 | 1 | 1010.7 |
| 20260904094545 | 62 | 292 | 3.0 | 5.0 | 0.00 | 0.02 | 0.00 | 1 | 1010.7 |
| 20260904093036 | 62 | 246 | 3.0 | 7.0 | 0.00 | 0.02 | 0.00 | 1 | 1010.7 |
| 20260904091532 | 62 | 241 | 3.0 | 8.0 | 0.00 | 0.02 | 0.00 | 1 | 1010.8 |
| 20260904090029 | 62 | 184 | 1.0 | 5.0 | 0.00 | 0.02 | 0.00 | 1 | 1010.8 |
| 20260904084524 | 62 | 179 | 1.0 | 4.0 | 0.00 | 0.02 | 0.00 | 1 | 1010.9 |
| 20260904083032 | 62 | 201 | 2.0 | 5.0 | 0.00 | 0.02 | 0.00 | 1 | 1010.9 |
| 20260904081516 | 62 | 221 | 2.0 | 5.0 | 0.00 | 0.02 | 0.00 | 1 | 1011.0 |
| 20260904080013 | 62 | 194 | 3.0 | 7.0 | 0.00 | 0.02 | 0.00 | 1 | 1010.9 |
| 20260904074508 | 62 | 214 | 3.0 | 6.0 | 0.00 | 0.10 | 0.00 | 1 | 1010.9 |
| 20260904073004 | 62 | 273 | 5.0 | 8.0 | 0.00 | 0.10 | 0.00 | 1 | 1010.9 |
| 20260904071559 | 62 | 273 | 0.0 | 3.0 | 0.00 | 0.10 | 0.00 | 1 | 1011.1 |
| 20260904070059 | 63 | 272 | 1.0 | 4.0 | 0.00 | 0.10 | 0.00 | 1 | 1011.2 |
| 20260904064550 | 63 | 273 | 3.0 | 7.0 | 0.00 | 0.10 | 0.00 | 1 | 1011.3 |
| 20260904063043 | 63 | 272 | 4.0 | 8.0 | 0.00 | 0.10 | 0.00 | 1 | 1011.4 |
| 20260904061541 | 63 | 279 | 2.0 | 8.0 | 0.00 | 0.10 | 0.00 | 1 | 1011.6 |
| 20260904060035 | 63 | 303 | 3.0 | 8.0 | 0.00 | 0.10 | 0.00 | 1 | 1011.9 |
| 20260904054530 | 63 | 325 | 2.0 | 6.0 | 0.00 | 0.10 | 0.00 | 1 | 1012.1 |
| 20260904053025 | 63 | 59 | 1.0 | 4.0 | 0.00 | 0.10 | 0.00 | 1 | 1012.2 |
| 20260904051521 | 63 | 90 | 2.0 | 4.0 | 0.00 | 0.10 | 0.00 | 1 | 1012.4 |
| 20260904050016 | 63 | 99 | 2.0 | 3.0 | 0.00 | 0.10 | 0.00 | 1 | 1012.4 |
| 20260904044518 | 63 | 98 | 2.0 | 4.0 | 0.00 | 0.10 | 0.00 | 1 | 1012.5 |
| 20260904043007 | 63 | 95 | 0.0 | 2.0 | 0.00 | 0.10 | 0.00 | 1 | 1012.5 |
| 20260904041506 | 63 | 95 | 0.0 | 1.0 | 0.00 | 0.10 | 0.00 | 1 | 1012.6 |
| 20260904040106 | 63 | 95 | 0.0 | 2.0 | 0.00 | 0.10 | 0.00 | 1 | 1012.8 |
| 20260904034559 | 63 | 95 | 1.0 | 6.0 | 0.00 | 0.10 | 0.10 | 1 | 1012.8 |
| 20260904033059 | 63 | 174 | 1.0 | 3.0 | 0.00 | 0.10 | 0.10 | 1 | 1013.0 |
| 20260904031557 | 63 | 177 | 0.0 | 4.0 | 0.00 | 0.10 | 0.10 | 1 | 1013.2 |
| 20260904030058 | 63 | 150 | 2.0 | 5.0 | 0.00 | 0.10 | 0.10 | 1 | 1013.0 |
| 20260904024558 | 63 | 117 | 2.0 | 6.0 | 0.00 | 0.10 | 0.10 | 1 | 1013.1 |
| 20260904023101 | 63 | 124 | 3.0 | 6.0 | 0.00 | 0.10 | 0.10 | 1 | 1013.0 |
| 20260904021604 | 63 | 129 | 2.0 | 4.0 | 0.00 | 0.10 | 0.10 | 1 | 1013.3 |
| 20260904020100 | 63 | 130 | 2.0 | 5.0 | 0.00 | 0.10 | 0.10 | 1 | 1013.2 |
| 20260904014559 | 63 | 129 | 1.0 | 5.0 | 0.00 | 0.10 | 0.10 | 1 | 1013.6 |
| 20260904013048 | 63 | 105 | 3.0 | 7.0 | 0.00 | 0.10 | 0.10 | 1 | 1013.3 |
| 20260904011542 | 63 | 116 | 2.0 | 9.0 | 0.00 | 0.10 | 0.10 | 1 | 1013.3 |
| 20260904010042 | 63 | 128 | 6.0 | 9.0 | 0.00 | 0.10 | 0.10 | 1 | 1013.2 |